sensor_id;sensor_type;location;lat;lon;timestamp;pressure;altitude;pressure_sealevel;temperature;humidity
35848;BME280;22332;51.954;20.118;2023-02-21T00:02:04;98955.57;;;7.80;85.66
35848;BME280;22332;51.954;20.118;2023-02-21T00:05:27;98958.11;;;7.80;85.75
35848;BME280;22332;51.954;20.118;2023-02-21T00:08:51;98954.39;;;7.75;85.83
35848;BME280;22332;51.954;20.118;2023-02-21T00:12:14;98945.90;;;7.74;85.96
35848;BME280;22332;51.954;20.118;2023-02-21T00:15:37;98944.50;;;7.78;85.94
35848;BME280;22332;51.954;20.118;2023-02-21T00:19:00;98939.27;;;7.82;85.87
35848;BME280;22332;51.954;20.118;2023-02-21T00:22:24;98937.55;;;7.84;86.11
35848;BME280;22332;51.954;20.118;2023-02-21T00:25:47;98954.33;;;7.82;85.93
35848;BME280;22332;51.954;20.118;2023-02-21T00:29:10;98950.86;;;7.77;85.94
35848;BME280;22332;51.954;20.118;2023-02-21T00:32:33;98955.02;;;7.78;86.04
35848;BME280;22332;51.954;20.118;2023-02-21T00:35:57;98949.94;;;7.83;85.84
35848;BME280;22332;51.954;20.118;2023-02-21T00:39:20;98937.25;;;7.85;85.58
35848;BME280;22332;51.954;20.118;2023-02-21T00:42:44;98931.86;;;7.81;85.40
35848;BME280;22332;51.954;20.118;2023-02-21T00:46:07;98932.59;;;7.76;85.52
35848;BME280;22332;51.954;20.118;2023-02-21T00:49:30;98928.45;;;7.72;85.45
35848;BME280;22332;51.954;20.118;2023-02-21T00:52:53;98927.11;;;7.72;85.27
35848;BME280;22332;51.954;20.118;2023-02-21T00:56:16;98928.77;;;7.77;85.54
35848;BME280;22332;51.954;20.118;2023-02-21T00:59:40;98923.31;;;7.80;85.12
35848;BME280;22332;51.954;20.118;2023-02-21T01:03:04;98925.08;;;7.82;84.97
35848;BME280;22332;51.954;20.118;2023-02-21T01:06:27;98927.20;;;7.82;85.13
35848;BME280;22332;51.954;20.118;2023-02-21T01:09:50;98926.84;;;7.80;85.28
35848;BME280;22332;51.954;20.118;2023-02-21T01:13:13;98921.39;;;7.85;85.46
35848;BME280;22332;51.954;20.118;2023-02-21T01:16:36;98918.56;;;7.85;85.93
35848;BME280;22332;51.954;20.118;2023-02-21T01:20:01;98911.80;;;7.83;86.14
35848;BME280;22332;51.954;20.118;2023-02-21T01:23:24;98902.07;;;7.82;86.28
35848;BME280;22332;51.954;20.118;2023-02-21T01:26:48;98904.60;;;7.78;86.82
35848;BME280;22332;51.954;20.118;2023-02-21T01:30:12;98890.00;;;7.76;86.87
35848;BME280;22332;51.954;20.118;2023-02-21T01:33:40;98892.59;;;7.78;87.08
35848;BME280;22332;51.954;20.118;2023-02-21T01:37:04;98890.10;;;7.76;87.28
35848;BME280;22332;51.954;20.118;2023-02-21T01:40:27;98900.04;;;7.66;89.50
35848;BME280;22332;51.954;20.118;2023-02-21T01:43:59;98893.02;;;7.55;90.52
35848;BME280;22332;51.954;20.118;2023-02-21T01:47:23;98891.31;;;7.50;90.82
35848;BME280;22332;51.954;20.118;2023-02-21T01:50:46;98886.64;;;7.43;91.88
35848;BME280;22332;51.954;20.118;2023-02-21T01:54:10;98878.48;;;7.33;92.64
35848;BME280;22332;51.954;20.118;2023-02-21T01:57:35;98883.77;;;7.29;93.43
35848;BME280;22332;51.954;20.118;2023-02-21T02:00:59;98891.39;;;7.27;94.43
35848;BME280;22332;51.954;20.118;2023-02-21T02:04:22;98885.89;;;7.22;95.05
35848;BME280;22332;51.954;20.118;2023-02-21T02:07:46;98889.58;;;7.19;95.65
35848;BME280;22332;51.954;20.118;2023-02-21T02:11:34;98892.11;;;7.14;96.28
35848;BME280;22332;51.954;20.118;2023-02-21T02:15:17;98894.06;;;7.14;95.38
35848;BME280;22332;51.954;20.118;2023-02-21T02:22:16;98897.12;;;7.17;96.86
35848;BME280;22332;51.954;20.118;2023-02-21T02:25:31;98897.65;;;7.12;97.24
35848;BME280;22332;51.954;20.118;2023-02-21T02:28:53;98900.73;;;7.11;97.16
35848;BME280;22332;51.954;20.118;2023-02-21T02:32:22;98898.28;;;7.12;97.08
35848;BME280;22332;51.954;20.118;2023-02-21T02:35:34;98898.31;;;7.08;96.68
35848;BME280;22332;51.954;20.118;2023-02-21T02:38:50;98896.75;;;7.06;96.79
35848;BME280;22332;51.954;20.118;2023-02-21T02:42:06;98893.48;;;7.00;96.89
35848;BME280;22332;51.954;20.118;2023-02-21T02:45:19;98895.23;;;6.96;96.31
35848;BME280;22332;51.954;20.118;2023-02-21T02:48:32;98897.81;;;6.93;96.48
35848;BME280;22332;51.954;20.118;2023-02-21T02:51:38;98906.13;;;6.86;96.60
35848;BME280;22332;51.954;20.118;2023-02-21T02:54:54;98897.93;;;6.84;96.43
35848;BME280;22332;51.954;20.118;2023-02-21T02:58:02;98903.27;;;6.80;95.93
35848;BME280;22332;51.954;20.118;2023-02-21T03:01:27;98904.65;;;6.79;95.40
35848;BME280;22332;51.954;20.118;2023-02-21T03:05:01;98911.45;;;6.78;94.72
35848;BME280;22332;51.954;20.118;2023-02-21T03:08:24;98910.91;;;6.78;94.76
35848;BME280;22332;51.954;20.118;2023-02-21T03:11:33;98912.30;;;6.77;94.41
35848;BME280;22332;51.954;20.118;2023-02-21T03:14:47;98910.55;;;6.75;94.14
35848;BME280;22332;51.954;20.118;2023-02-21T03:17:58;98918.52;;;6.71;94.20
35848;BME280;22332;51.954;20.118;2023-02-21T03:21:08;98915.46;;;6.72;93.67
35848;BME280;22332;51.954;20.118;2023-02-21T03:24:18;98907.70;;;6.72;93.41
35848;BME280;22332;51.954;20.118;2023-02-21T03:27:25;98912.95;;;6.75;92.75
35848;BME280;22332;51.954;20.118;2023-02-21T03:30:40;98916.30;;;6.77;92.54
35848;BME280;22332;51.954;20.118;2023-02-21T03:33:46;98910.55;;;6.75;92.54
35848;BME280;22332;51.954;20.118;2023-02-21T03:36:51;98918.05;;;6.73;92.29
35848;BME280;22332;51.954;20.118;2023-02-21T03:39:57;98917.48;;;6.73;92.04
35848;BME280;22332;51.954;20.118;2023-02-21T03:43:05;98917.10;;;6.73;92.21
35848;BME280;22332;51.954;20.118;2023-02-21T03:46:15;98906.95;;;6.74;92.11
35848;BME280;22332;51.954;20.118;2023-02-21T03:49:20;98914.19;;;6.76;91.88
35848;BME280;22332;51.954;20.118;2023-02-21T03:52:27;98915.11;;;6.75;91.20
35848;BME280;22332;51.954;20.118;2023-02-21T03:55:33;98924.11;;;6.79;90.49
35848;BME280;22332;51.954;20.118;2023-02-21T03:58:40;98929.08;;;6.82;90.12
35848;BME280;22332;51.954;20.118;2023-02-21T04:01:46;98915.95;;;6.81;89.00
35848;BME280;22332;51.954;20.118;2023-02-21T04:04:53;98915.63;;;6.80;87.43
35848;BME280;22332;51.954;20.118;2023-02-21T04:08:01;98913.41;;;6.84;86.97
35848;BME280;22332;51.954;20.118;2023-02-21T04:11:08;98926.10;;;6.85;84.72
35848;BME280;22332;51.954;20.118;2023-02-21T04:14:14;98927.76;;;6.82;84.85
35848;BME280;22332;51.954;20.118;2023-02-21T04:17:20;98925.89;;;6.80;84.43
35848;BME280;22332;51.954;20.118;2023-02-21T04:20:26;98920.85;;;6.79;84.93
35848;BME280;22332;51.954;20.118;2023-02-21T04:23:35;98930.27;;;6.81;84.20
35848;BME280;22332;51.954;20.118;2023-02-21T04:26:42;98919.55;;;6.83;83.95
35848;BME280;22332;51.954;20.118;2023-02-21T04:29:50;98918.02;;;6.83;83.30
35848;BME280;22332;51.954;20.118;2023-02-21T04:32:59;98931.73;;;6.80;82.65
35848;BME280;22332;51.954;20.118;2023-02-21T04:36:07;98919.20;;;6.77;82.90
35848;BME280;22332;51.954;20.118;2023-02-21T04:39:18;98912.49;;;6.73;82.15
35848;BME280;22332;51.954;20.118;2023-02-21T04:42:25;98907.00;;;6.70;83.08
35848;BME280;22332;51.954;20.118;2023-02-21T04:45:31;98900.67;;;6.63;82.23
35848;BME280;22332;51.954;20.118;2023-02-21T04:48:36;98910.02;;;6.58;82.13
35848;BME280;22332;51.954;20.118;2023-02-21T04:51:43;98913.96;;;6.57;81.65
35848;BME280;22332;51.954;20.118;2023-02-21T04:54:48;98903.02;;;6.55;81.29
35848;BME280;22332;51.954;20.118;2023-02-21T04:57:54;98915.58;;;6.54;81.01
35848;BME280;22332;51.954;20.118;2023-02-21T05:01:00;98916.66;;;6.50;80.96
35848;BME280;22332;51.954;20.118;2023-02-21T05:04:06;98923.30;;;6.47;81.79
35848;BME280;22332;51.954;20.118;2023-02-21T05:07:11;98928.62;;;6.45;81.81
35848;BME280;22332;51.954;20.118;2023-02-21T05:10:18;98939.88;;;6.42;81.33
35848;BME280;22332;51.954;20.118;2023-02-21T05:13:23;98935.48;;;6.39;81.45
35848;BME280;22332;51.954;20.118;2023-02-21T05:16:29;98935.36;;;6.33;81.12
35848;BME280;22332;51.954;20.118;2023-02-21T05:19:35;98943.36;;;6.24;81.00
35848;BME280;22332;51.954;20.118;2023-02-21T05:22:41;98946.86;;;6.21;81.63
35848;BME280;22332;51.954;20.118;2023-02-21T05:25:47;98942.33;;;6.22;81.46
35848;BME280;22332;51.954;20.118;2023-02-21T05:28:53;98953.46;;;6.24;80.98
35848;BME280;22332;51.954;20.118;2023-02-21T05:32:00;98951.62;;;6.19;80.96
35848;BME280;22332;51.954;20.118;2023-02-21T05:35:06;98957.20;;;6.13;81.13
35848;BME280;22332;51.954;20.118;2023-02-21T05:38:12;98969.84;;;6.07;81.51
35848;BME280;22332;51.954;20.118;2023-02-21T05:41:18;98973.20;;;6.03;81.93
35848;BME280;22332;51.954;20.118;2023-02-21T05:44:23;98974.16;;;6.00;81.43
35848;BME280;22332;51.954;20.118;2023-02-21T05:47:29;98982.15;;;6.00;81.61
35848;BME280;22332;51.954;20.118;2023-02-21T05:50:34;98979.94;;;6.01;82.11
35848;BME280;22332;51.954;20.118;2023-02-21T05:53:40;98988.48;;;6.01;81.95
35848;BME280;22332;51.954;20.118;2023-02-21T05:56:47;98996.16;;;5.98;82.02
35848;BME280;22332;51.954;20.118;2023-02-21T05:59:53;98984.16;;;6.00;80.97
35848;BME280;22332;51.954;20.118;2023-02-21T06:02:59;98984.61;;;6.02;80.47
35848;BME280;22332;51.954;20.118;2023-02-21T06:06:04;98983.70;;;6.06;80.85
35848;BME280;22332;51.954;20.118;2023-02-21T06:09:11;98990.14;;;6.07;80.35
35848;BME280;22332;51.954;20.118;2023-02-21T06:12:17;98993.14;;;6.05;79.49
35848;BME280;22332;51.954;20.118;2023-02-21T06:15:22;99007.89;;;6.07;79.52
35848;BME280;22332;51.954;20.118;2023-02-21T06:18:28;99017.59;;;6.11;79.38
35848;BME280;22332;51.954;20.118;2023-02-21T06:21:33;99012.03;;;6.14;78.58
35848;BME280;22332;51.954;20.118;2023-02-21T06:24:40;99021.62;;;6.17;79.04
35848;BME280;22332;51.954;20.118;2023-02-21T06:27:45;99022.11;;;6.19;79.33
35848;BME280;22332;51.954;20.118;2023-02-21T06:30:51;99020.62;;;6.20;79.85
35848;BME280;22332;51.954;20.118;2023-02-21T06:33:57;99023.90;;;6.20;79.22
35848;BME280;22332;51.954;20.118;2023-02-21T06:37:03;99037.05;;;6.21;78.73
35848;BME280;22332;51.954;20.118;2023-02-21T06:40:11;99032.73;;;6.24;79.29
35848;BME280;22332;51.954;20.118;2023-02-21T06:43:16;99029.11;;;6.23;79.25
35848;BME280;22332;51.954;20.118;2023-02-21T06:46:24;99040.27;;;6.12;78.15
35848;BME280;22332;51.954;20.118;2023-02-21T06:49:30;99044.54;;;6.05;78.27
35848;BME280;22332;51.954;20.118;2023-02-21T06:52:36;99047.52;;;6.02;78.35
35848;BME280;22332;51.954;20.118;2023-02-21T06:55:41;99047.01;;;6.03;78.05
35848;BME280;22332;51.954;20.118;2023-02-21T06:58:47;99046.08;;;6.02;77.53
35848;BME280;22332;51.954;20.118;2023-02-21T07:01:52;99050.19;;;5.96;77.60
35848;BME280;22332;51.954;20.118;2023-02-21T07:04:58;99049.86;;;5.94;77.84
35848;BME280;22332;51.954;20.118;2023-02-21T07:08:04;99055.64;;;5.98;78.22
35848;BME280;22332;51.954;20.118;2023-02-21T07:11:10;99048.48;;;6.06;78.72
35848;BME280;22332;51.954;20.118;2023-02-21T07:14:16;99048.98;;;6.19;78.78
35848;BME280;22332;51.954;20.118;2023-02-21T07:17:21;99053.34;;;6.30;77.96
35848;BME280;22332;51.954;20.118;2023-02-21T07:20:27;99060.89;;;6.36;77.58
35848;BME280;22332;51.954;20.118;2023-02-21T07:23:32;99054.65;;;6.34;76.65
35848;BME280;22332;51.954;20.118;2023-02-21T07:26:38;99063.31;;;6.33;76.53
35848;BME280;22332;51.954;20.118;2023-02-21T07:29:44;99077.48;;;6.32;75.06
35848;BME280;22332;51.954;20.118;2023-02-21T07:32:50;99088.17;;;6.35;74.27
35848;BME280;22332;51.954;20.118;2023-02-21T07:35:55;99085.22;;;6.39;74.67
35848;BME280;22332;51.954;20.118;2023-02-21T07:39:01;99101.77;;;6.45;74.31
35848;BME280;22332;51.954;20.118;2023-02-21T07:42:07;99104.58;;;6.57;74.03
35848;BME280;22332;51.954;20.118;2023-02-21T07:45:13;99116.15;;;6.74;73.53
35848;BME280;22332;51.954;20.118;2023-02-21T07:48:19;99122.67;;;6.83;73.28
35848;BME280;22332;51.954;20.118;2023-02-21T07:51:27;99137.67;;;6.87;71.70
35848;BME280;22332;51.954;20.118;2023-02-21T07:54:34;99144.21;;;6.88;72.31
35848;BME280;22332;51.954;20.118;2023-02-21T07:57:39;99142.69;;;6.89;72.74
35848;BME280;22332;51.954;20.118;2023-02-21T08:00:45;99146.69;;;6.94;72.82
35848;BME280;22332;51.954;20.118;2023-02-21T08:03:50;99152.51;;;6.97;72.69
35848;BME280;22332;51.954;20.118;2023-02-21T08:07:00;99153.07;;;6.95;72.57
35848;BME280;22332;51.954;20.118;2023-02-21T08:10:07;99157.35;;;6.97;71.71
35848;BME280;22332;51.954;20.118;2023-02-21T08:13:13;99150.27;;;6.90;72.82
35848;BME280;22332;51.954;20.118;2023-02-21T08:16:19;99156.52;;;6.85;72.95
35848;BME280;22332;51.954;20.118;2023-02-21T08:19:24;99160.73;;;6.90;72.89
35848;BME280;22332;51.954;20.118;2023-02-21T08:22:30;99180.19;;;6.95;72.72
35848;BME280;22332;51.954;20.118;2023-02-21T08:25:35;99166.46;;;7.08;72.58
35848;BME280;22332;51.954;20.118;2023-02-21T08:28:41;99177.52;;;7.22;72.53
35848;BME280;22332;51.954;20.118;2023-02-21T08:31:46;99185.54;;;7.34;71.85
35848;BME280;22332;51.954;20.118;2023-02-21T08:34:52;99177.55;;;7.44;71.91
35848;BME280;22332;51.954;20.118;2023-02-21T08:37:57;99185.85;;;7.55;71.65
35848;BME280;22332;51.954;20.118;2023-02-21T08:41:06;99186.58;;;7.67;71.06
35848;BME280;22332;51.954;20.118;2023-02-21T08:44:15;99200.48;;;7.62;69.54
35848;BME280;22332;51.954;20.118;2023-02-21T08:47:20;99202.44;;;7.59;69.51
35848;BME280;22332;51.954;20.118;2023-02-21T08:50:27;99206.06;;;7.55;70.24
35848;BME280;22332;51.954;20.118;2023-02-21T08:53:33;99223.03;;;7.49;70.05
35848;BME280;22332;51.954;20.118;2023-02-21T08:56:38;99216.84;;;7.53;70.29
35848;BME280;22332;51.954;20.118;2023-02-21T08:59:44;99219.73;;;7.59;70.74
35848;BME280;22332;51.954;20.118;2023-02-21T09:02:51;99223.69;;;7.60;69.88
35848;BME280;22332;51.954;20.118;2023-02-21T09:05:56;99223.01;;;7.62;69.53
35848;BME280;22332;51.954;20.118;2023-02-21T09:09:02;99221.99;;;7.68;70.75
35848;BME280;22332;51.954;20.118;2023-02-21T09:12:09;99225.42;;;7.81;70.99
35848;BME280;22332;51.954;20.118;2023-02-21T09:15:15;99222.65;;;7.87;69.61
35848;BME280;22332;51.954;20.118;2023-02-21T09:18:21;99224.71;;;7.90;69.47
35848;BME280;22332;51.954;20.118;2023-02-21T09:21:27;99228.77;;;7.88;69.63
35848;BME280;22332;51.954;20.118;2023-02-21T09:24:33;99237.09;;;7.85;69.32
35848;BME280;22332;51.954;20.118;2023-02-21T09:27:39;99234.67;;;7.79;69.37
35848;BME280;22332;51.954;20.118;2023-02-21T09:30:44;99245.01;;;7.66;68.82
35848;BME280;22332;51.954;20.118;2023-02-21T09:33:50;99253.84;;;7.58;69.08
35848;BME280;22332;51.954;20.118;2023-02-21T09:36:56;99250.77;;;7.48;68.56
35848;BME280;22332;51.954;20.118;2023-02-21T09:40:03;99262.98;;;7.50;69.32
35848;BME280;22332;51.954;20.118;2023-02-21T09:43:15;99265.42;;;7.58;69.82
35848;BME280;22332;51.954;20.118;2023-02-21T09:46:27;99267.49;;;7.54;68.69
35848;BME280;22332;51.954;20.118;2023-02-21T09:49:37;99275.35;;;7.54;68.62
35848;BME280;22332;51.954;20.118;2023-02-21T09:52:45;99288.33;;;7.49;67.47
35848;BME280;22332;51.954;20.118;2023-02-21T09:55:55;99277.86;;;7.46;67.60
35848;BME280;22332;51.954;20.118;2023-02-21T09:59:02;99288.61;;;7.46;68.16
35848;BME280;22332;51.954;20.118;2023-02-21T10:02:27;99293.02;;;7.46;67.99
35848;BME280;22332;51.954;20.118;2023-02-21T10:05:44;99299.36;;;7.53;68.64
35848;BME280;22332;51.954;20.118;2023-02-21T10:08:55;99308.06;;;7.47;66.76
35848;BME280;22332;51.954;20.118;2023-02-21T10:12:09;99310.99;;;7.44;67.24
35848;BME280;22332;51.954;20.118;2023-02-21T10:15:36;99318.53;;;7.50;67.61
35848;BME280;22332;51.954;20.118;2023-02-21T10:18:51;99327.31;;;7.49;67.02
35848;BME280;22332;51.954;20.118;2023-02-21T10:22:08;99324.73;;;7.50;67.62
35848;BME280;22332;51.954;20.118;2023-02-21T10:25:25;99331.35;;;7.56;67.83
35848;BME280;22332;51.954;20.118;2023-02-21T10:28:32;99328.97;;;7.59;68.16
35848;BME280;22332;51.954;20.118;2023-02-21T10:31:39;99335.70;;;7.59;68.08
35848;BME280;22332;51.954;20.118;2023-02-21T10:34:49;99333.32;;;7.60;68.09
35848;BME280;22332;51.954;20.118;2023-02-21T10:37:57;99343.61;;;7.56;66.94
35848;BME280;22332;51.954;20.118;2023-02-21T10:41:04;99339.43;;;7.50;67.83
35848;BME280;22332;51.954;20.118;2023-02-21T10:44:14;99340.80;;;7.45;68.09
35848;BME280;22332;51.954;20.118;2023-02-21T10:47:28;99344.65;;;7.42;67.42
35848;BME280;22332;51.954;20.118;2023-02-21T10:50:40;99351.16;;;7.39;67.17
35848;BME280;22332;51.954;20.118;2023-02-21T10:53:47;99357.79;;;7.36;65.90
35848;BME280;22332;51.954;20.118;2023-02-21T10:56:54;99352.19;;;7.34;65.90
35848;BME280;22332;51.954;20.118;2023-02-21T10:59:59;99361.98;;;7.35;65.31
35848;BME280;22332;51.954;20.118;2023-02-21T11:03:21;99359.02;;;7.41;66.07
35848;BME280;22332;51.954;20.118;2023-02-21T11:06:35;99364.90;;;7.48;66.14
35848;BME280;22332;51.954;20.118;2023-02-21T11:09:42;99362.59;;;7.48;65.58
35848;BME280;22332;51.954;20.118;2023-02-21T11:13:02;99365.89;;;7.55;66.17
35848;BME280;22332;51.954;20.118;2023-02-21T11:16:14;99365.16;;;7.65;66.75
35848;BME280;22332;51.954;20.118;2023-02-21T11:19:20;99369.52;;;7.76;65.78
35848;BME280;22332;51.954;20.118;2023-02-21T11:22:37;99371.60;;;7.82;65.15
35848;BME280;22332;51.954;20.118;2023-02-21T11:25:46;99365.29;;;7.83;65.58
35848;BME280;22332;51.954;20.118;2023-02-21T11:28:53;99373.17;;;7.85;64.66
35848;BME280;22332;51.954;20.118;2023-02-21T11:31:59;99376.60;;;7.76;64.19
35848;BME280;22332;51.954;20.118;2023-02-21T11:35:24;99382.73;;;7.75;64.09
35848;BME280;22332;51.954;20.118;2023-02-21T11:38:33;99369.75;;;7.75;65.19
35848;BME280;22332;51.954;20.118;2023-02-21T11:41:46;99373.49;;;7.84;65.08
35848;BME280;22332;51.954;20.118;2023-02-21T11:44:51;99372.79;;;7.87;64.36
35848;BME280;22332;51.954;20.118;2023-02-21T11:48:15;99375.13;;;7.85;64.49
35848;BME280;22332;51.954;20.118;2023-02-21T11:51:31;99373.08;;;7.84;64.74
35848;BME280;22332;51.954;20.118;2023-02-21T11:54:39;99375.88;;;7.81;63.81
35848;BME280;22332;51.954;20.118;2023-02-21T11:57:51;99377.73;;;7.81;64.08
35848;BME280;22332;51.954;20.118;2023-02-21T12:01:02;99385.42;;;7.86;63.54
35848;BME280;22332;51.954;20.118;2023-02-21T12:04:27;99383.02;;;7.84;62.87
35848;BME280;22332;51.954;20.118;2023-02-21T12:07:41;99395.15;;;7.85;63.06
35848;BME280;22332;51.954;20.118;2023-02-21T12:10:54;99399.97;;;7.76;62.84
35848;BME280;22332;51.954;20.118;2023-02-21T12:14:11;99409.35;;;7.67;63.75
35848;BME280;22332;51.954;20.118;2023-02-21T12:17:44;99409.49;;;7.61;64.16
35848;BME280;22332;51.954;20.118;2023-02-21T12:21:07;99408.04;;;7.54;64.68
35848;BME280;22332;51.954;20.118;2023-02-21T12:24:28;99406.13;;;7.46;64.64
35848;BME280;22332;51.954;20.118;2023-02-21T12:27:44;99411.51;;;7.42;65.14
35848;BME280;22332;51.954;20.118;2023-02-21T12:31:01;99407.77;;;7.46;65.77
35848;BME280;22332;51.954;20.118;2023-02-21T12:34:22;99412.13;;;7.52;65.50
35848;BME280;22332;51.954;20.118;2023-02-21T12:37:38;99412.17;;;7.55;65.71
35848;BME280;22332;51.954;20.118;2023-02-21T12:40:53;99425.20;;;7.58;65.22
35848;BME280;22332;51.954;20.118;2023-02-21T12:44:11;99419.17;;;7.56;65.21
35848;BME280;22332;51.954;20.118;2023-02-21T12:47:20;99423.94;;;7.56;65.50
35848;BME280;22332;51.954;20.118;2023-02-21T12:50:32;99425.34;;;7.58;65.03
35848;BME280;22332;51.954;20.118;2023-02-21T12:53:42;99423.98;;;7.59;64.84
35848;BME280;22332;51.954;20.118;2023-02-21T12:56:54;99426.27;;;7.58;64.86
35848;BME280;22332;51.954;20.118;2023-02-21T13:00:11;99420.23;;;7.59;64.96
35848;BME280;22332;51.954;20.118;2023-02-21T13:03:38;99424.61;;;7.65;64.77
35848;BME280;22332;51.954;20.118;2023-02-21T13:06:50;99432.98;;;7.65;65.01
35848;BME280;22332;51.954;20.118;2023-02-21T13:10:02;99439.52;;;7.63;64.78
35848;BME280;22332;51.954;20.118;2023-02-21T13:13:14;99433.15;;;7.61;64.74
35848;BME280;22332;51.954;20.118;2023-02-21T13:16:20;99434.29;;;7.57;65.05
35848;BME280;22332;51.954;20.118;2023-02-21T13:19:29;99436.51;;;7.58;65.37
35848;BME280;22332;51.954;20.118;2023-02-21T13:26:12;99444.30;;;7.54;66.09
35848;BME280;22332;51.954;20.118;2023-02-21T13:29:23;99443.25;;;7.51;66.37
35848;BME280;22332;51.954;20.118;2023-02-21T13:32:37;99442.06;;;7.54;66.33
35848;BME280;22332;51.954;20.118;2023-02-21T13:35:43;99448.66;;;7.50;66.65
35848;BME280;22332;51.954;20.118;2023-02-21T13:39:00;99447.79;;;7.44;66.64
35848;BME280;22332;51.954;20.118;2023-02-21T13:42:10;99451.21;;;7.38;66.85
35848;BME280;22332;51.954;20.118;2023-02-21T13:45:23;99449.50;;;7.43;67.15
35848;BME280;22332;51.954;20.118;2023-02-21T13:48:29;99457.18;;;7.44;66.71
35848;BME280;22332;51.954;20.118;2023-02-21T13:51:50;99462.09;;;7.41;66.68
35848;BME280;22332;51.954;20.118;2023-02-21T13:58:39;99468.66;;;7.42;67.18
35848;BME280;22332;51.954;20.118;2023-02-21T14:01:49;99471.42;;;7.43;66.95
35848;BME280;22332;51.954;20.118;2023-02-21T14:05:06;99477.02;;;7.42;66.93
35848;BME280;22332;51.954;20.118;2023-02-21T14:08:14;99475.13;;;7.41;67.14
35848;BME280;22332;51.954;20.118;2023-02-21T14:11:23;99480.01;;;7.47;67.09
35848;BME280;22332;51.954;20.118;2023-02-21T14:14:35;99477.31;;;7.52;67.16
35848;BME280;22332;51.954;20.118;2023-02-21T14:17:43;99479.39;;;7.55;67.27
35848;BME280;22332;51.954;20.118;2023-02-21T14:20:54;99487.95;;;7.58;67.41
35848;BME280;22332;51.954;20.118;2023-02-21T14:24:01;99486.66;;;7.57;67.17
35848;BME280;22332;51.954;20.118;2023-02-21T14:27:32;99490.16;;;7.56;67.27
35848;BME280;22332;51.954;20.118;2023-02-21T14:30:38;99491.94;;;7.50;67.09
35848;BME280;22332;51.954;20.118;2023-02-21T14:33:44;99490.14;;;7.45;67.40
35848;BME280;22332;51.954;20.118;2023-02-21T14:36:51;99488.65;;;7.46;67.51
35848;BME280;22332;51.954;20.118;2023-02-21T14:40:02;99497.14;;;7.47;67.68
35848;BME280;22332;51.954;20.118;2023-02-21T14:43:37;99496.98;;;7.49;67.56
35848;BME280;22332;51.954;20.118;2023-02-21T14:47:08;99499.29;;;7.57;67.56
35848;BME280;22332;51.954;20.118;2023-02-21T14:50:37;99495.02;;;7.53;67.35
35848;BME280;22332;51.954;20.118;2023-02-21T15:00:58;99523.51;;;7.35;67.91
35848;BME280;22332;51.954;20.118;2023-02-21T15:04:16;99527.84;;;7.31;67.95
35848;BME280;22332;51.954;20.118;2023-02-21T15:07:27;99529.53;;;7.28;67.98
35848;BME280;22332;51.954;20.118;2023-02-21T15:10:38;99535.84;;;7.23;68.04
35848;BME280;22332;51.954;20.118;2023-02-21T15:13:44;99545.39;;;7.21;68.38
35848;BME280;22332;51.954;20.118;2023-02-21T15:16:52;99538.86;;;7.16;68.18
35848;BME280;22332;51.954;20.118;2023-02-21T15:20:12;99544.52;;;7.12;68.54
35848;BME280;22332;51.954;20.118;2023-02-21T15:23:22;99548.52;;;7.05;68.72
35848;BME280;22332;51.954;20.118;2023-02-21T15:26:33;99552.98;;;7.03;68.78
35848;BME280;22332;51.954;20.118;2023-02-21T15:29:39;99553.09;;;7.04;69.27
35848;BME280;22332;51.954;20.118;2023-02-21T15:32:51;99558.48;;;7.08;68.86
35848;BME280;22332;51.954;20.118;2023-02-21T15:35:59;99563.15;;;7.11;69.06
35848;BME280;22332;51.954;20.118;2023-02-21T15:39:09;99565.70;;;7.14;69.17
35848;BME280;22332;51.954;20.118;2023-02-21T15:42:19;99571.73;;;7.12;69.00
35848;BME280;22332;51.954;20.118;2023-02-21T15:45:27;99572.36;;;7.04;69.40
35848;BME280;22332;51.954;20.118;2023-02-21T15:48:35;99578.33;;;7.00;69.56
35848;BME280;22332;51.954;20.118;2023-02-21T15:51:41;99580.30;;;6.96;69.47
35848;BME280;22332;51.954;20.118;2023-02-21T15:54:46;99581.16;;;6.91;69.58
35848;BME280;22332;51.954;20.118;2023-02-21T15:58:00;99582.20;;;6.88;69.89
35848;BME280;22332;51.954;20.118;2023-02-21T16:01:08;99585.29;;;6.81;69.97
35848;BME280;22332;51.954;20.118;2023-02-21T16:04:20;99586.21;;;6.77;69.87
35848;BME280;22332;51.954;20.118;2023-02-21T16:07:34;99589.13;;;6.74;70.09
35848;BME280;22332;51.954;20.118;2023-02-21T16:10:40;99592.14;;;6.78;70.11
35848;BME280;22332;51.954;20.118;2023-02-21T16:13:47;99593.91;;;6.80;70.12
35848;BME280;22332;51.954;20.118;2023-02-21T16:17:04;99599.41;;;6.81;70.11
35848;BME280;22332;51.954;20.118;2023-02-21T16:20:17;99603.48;;;6.79;69.92
35848;BME280;22332;51.954;20.118;2023-02-21T16:23:31;99601.02;;;6.78;70.08
35848;BME280;22332;51.954;20.118;2023-02-21T16:26:36;99610.79;;;6.75;69.77
35848;BME280;22332;51.954;20.118;2023-02-21T16:29:42;99616.82;;;6.71;70.06
35848;BME280;22332;51.954;20.118;2023-02-21T16:32:49;99621.45;;;6.63;70.02
35848;BME280;22332;51.954;20.118;2023-02-21T16:35:55;99622.86;;;6.57;70.15
35848;BME280;22332;51.954;20.118;2023-02-21T16:39:01;99627.04;;;6.54;70.37
35848;BME280;22332;51.954;20.118;2023-02-21T16:42:07;99629.82;;;6.51;70.16
35848;BME280;22332;51.954;20.118;2023-02-21T16:45:13;99640.60;;;6.51;70.64
35848;BME280;22332;51.954;20.118;2023-02-21T16:48:20;99636.18;;;6.49;70.59
35848;BME280;22332;51.954;20.118;2023-02-21T16:51:28;99640.52;;;6.52;70.62
35848;BME280;22332;51.954;20.118;2023-02-21T16:54:38;99647.90;;;6.54;70.71
35848;BME280;22332;51.954;20.118;2023-02-21T16:57:45;99650.27;;;6.55;70.72
35848;BME280;22332;51.954;20.118;2023-02-21T17:00:51;99655.90;;;6.54;70.79
35848;BME280;22332;51.954;20.118;2023-02-21T17:03:57;99652.23;;;6.53;70.52
35848;BME280;22332;51.954;20.118;2023-02-21T17:07:06;99659.85;;;6.47;70.67
35848;BME280;22332;51.954;20.118;2023-02-21T17:10:12;99663.79;;;6.45;70.98
35848;BME280;22332;51.954;20.118;2023-02-21T17:13:18;99673.14;;;6.43;70.79